sensor_id;sensor_type;location;lat;lon;timestamp;P1;durP1;ratioP1;P2;durP2;ratioP2
17818;SDS011;9034;50.284;19.310;2023-06-22T00:00:53;11.25;;;10.05;;
17818;SDS011;9034;50.284;19.310;2023-06-22T00:01:56;10.98;;;9.73;;
17818;SDS011;9034;50.284;19.310;2023-06-22T00:02:58;11.15;;;10.05;;
17818;SDS011;9034;50.284;19.310;2023-06-22T00:04:01;16.30;;;9.88;;
17818;SDS011;9034;50.284;19.310;2023-06-22T00:05:04;12.10;;;9.80;;
17818;SDS011;9034;50.284;19.310;2023-06-22T00:06:07;10.63;;;9.63;;
17818;SDS011;9034;50.284;19.310;2023-06-22T00:07:10;11.63;;;10.40;;
17818;SDS011;9034;50.284;19.310;2023-06-22T00:08:11;10.63;;;9.63;;
17818;SDS011;9034;50.284;19.310;2023-06-22T00:09:15;13.02;;;10.20;;
17818;SDS011;9034;50.284;19.310;2023-06-22T00:10:16;10.32;;;9.32;;
17818;SDS011;9034;50.284;19.310;2023-06-22T00:11:19;14.77;;;9.27;;
17818;SDS011;9034;50.284;19.310;2023-06-22T00:12:23;9.93;;;8.93;;
17818;SDS011;9034;50.284;19.310;2023-06-22T00:13:25;12.02;;;8.85;;
17818;SDS011;9034;50.284;19.310;2023-06-22T00:14:27;11.13;;;9.07;;
17818;SDS011;9034;50.284;19.310;2023-06-22T00:15:30;14.68;;;9.05;;
17818;SDS011;9034;50.284;19.310;2023-06-22T00:16:32;9.98;;;8.75;;
17818;SDS011;9034;50.284;19.310;2023-06-22T00:17:35;12.25;;;9.93;;
17818;SDS011;9034;50.284;19.310;2023-06-22T00:18:37;10.75;;;9.07;;
17818;SDS011;9034;50.284;19.310;2023-06-22T00:19:40;13.38;;;9.82;;
17818;SDS011;9034;50.284;19.310;2023-06-22T00:20:42;10.07;;;9.15;;
17818;SDS011;9034;50.284;19.310;2023-06-22T00:21:48;10.00;;;8.85;;
17818;SDS011;9034;50.284;19.310;2023-06-22T00:22:54;10.63;;;9.07;;
17818;SDS011;9034;50.284;19.310;2023-06-22T00:23:57;10.45;;;9.30;;
17818;SDS011;9034;50.284;19.310;2023-06-22T00:24:59;12.57;;;9.13;;
17818;SDS011;9034;50.284;19.310;2023-06-22T00:26:02;11.75;;;9.90;;
17818;SDS011;9034;50.284;19.310;2023-06-22T00:27:06;12.88;;;9.30;;
17818;SDS011;9034;50.284;19.310;2023-06-22T00:28:10;13.00;;;9.07;;
17818;SDS011;9034;50.284;19.310;2023-06-22T00:29:13;12.80;;;8.65;;
17818;SDS011;9034;50.284;19.310;2023-06-22T00:30:18;12.40;;;9.48;;
17818;SDS011;9034;50.284;19.310;2023-06-22T00:31:21;11.57;;;9.10;;
17818;SDS011;9034;50.284;19.310;2023-06-22T00:32:23;12.02;;;9.52;;
17818;SDS011;9034;50.284;19.310;2023-06-22T00:33:26;18.15;;;9.50;;
17818;SDS011;9034;50.284;19.310;2023-06-22T00:34:28;13.80;;;8.60;;
17818;SDS011;9034;50.284;19.310;2023-06-22T00:35:30;13.32;;;8.82;;
17818;SDS011;9034;50.284;19.310;2023-06-22T00:36:32;11.98;;;8.10;;
17818;SDS011;9034;50.284;19.310;2023-06-22T00:37:35;10.73;;;9.02;;
17818;SDS011;9034;50.284;19.310;2023-06-22T00:38:37;13.57;;;9.35;;
17818;SDS011;9034;50.284;19.310;2023-06-22T00:39:42;12.57;;;9.50;;
17818;SDS011;9034;50.284;19.310;2023-06-22T00:40:45;14.00;;;9.13;;
17818;SDS011;9034;50.284;19.310;2023-06-22T00:41:48;14.98;;;9.15;;
17818;SDS011;9034;50.284;19.310;2023-06-22T00:42:50;12.13;;;8.90;;
17818;SDS011;9034;50.284;19.310;2023-06-22T00:43:54;17.65;;;10.18;;
17818;SDS011;9034;50.284;19.310;2023-06-22T00:44:56;15.00;;;10.90;;
17818;SDS011;9034;50.284;19.310;2023-06-22T00:45:59;14.05;;;11.40;;
17818;SDS011;9034;50.284;19.310;2023-06-22T00:47:01;15.50;;;11.98;;
17818;SDS011;9034;50.284;19.310;2023-06-22T00:48:05;17.33;;;13.25;;
17818;SDS011;9034;50.284;19.310;2023-06-22T00:49:09;17.83;;;12.82;;
17818;SDS011;9034;50.284;19.310;2023-06-22T00:50:11;19.20;;;13.43;;
17818;SDS011;9034;50.284;19.310;2023-06-22T00:51:19;19.45;;;13.00;;
17818;SDS011;9034;50.284;19.310;2023-06-22T00:52:25;15.35;;;13.15;;
17818;SDS011;9034;50.284;19.310;2023-06-22T00:53:32;13.63;;;11.50;;
17818;SDS011;9034;50.284;19.310;2023-06-22T00:54:36;13.95;;;11.82;;
17818;SDS011;9034;50.284;19.310;2023-06-22T00:55:41;14.48;;;11.02;;
17818;SDS011;9034;50.284;19.310;2023-06-22T00:56:44;12.23;;;9.02;;
17818;SDS011;9034;50.284;19.310;2023-06-22T00:57:47;16.08;;;10.52;;
17818;SDS011;9034;50.284;19.310;2023-06-22T00:58:50;15.18;;;10.30;;
17818;SDS011;9034;50.284;19.310;2023-06-22T00:59:56;20.70;;;10.35;;
17818;SDS011;9034;50.284;19.310;2023-06-22T01:00:58;13.50;;;10.02;;
17818;SDS011;9034;50.284;19.310;2023-06-22T01:02:01;13.85;;;11.23;;
17818;SDS011;9034;50.284;19.310;2023-06-22T01:03:03;16.50;;;10.95;;
17818;SDS011;9034;50.284;19.310;2023-06-22T01:04:10;20.98;;;11.73;;
17818;SDS011;9034;50.284;19.310;2023-06-22T01:05:13;15.43;;;11.80;;
17818;SDS011;9034;50.284;19.310;2023-06-22T01:06:18;20.88;;;12.20;;
17818;SDS011;9034;50.284;19.310;2023-06-22T01:07:30;22.65;;;12.18;;
17818;SDS011;9034;50.284;19.310;2023-06-22T01:08:39;18.27;;;12.02;;
17818;SDS011;9034;50.284;19.310;2023-06-22T01:09:49;14.93;;;10.85;;
17818;SDS011;9034;50.284;19.310;2023-06-22T01:10:55;14.35;;;11.52;;
17818;SDS011;9034;50.284;19.310;2023-06-22T01:12:02;15.68;;;11.55;;
17818;SDS011;9034;50.284;19.310;2023-06-22T01:13:07;16.52;;;11.02;;
17818;SDS011;9034;50.284;19.310;2023-06-22T01:14:20;18.48;;;11.63;;
17818;SDS011;9034;50.284;19.310;2023-06-22T01:15:30;13.13;;;10.25;;
17818;SDS011;9034;50.284;19.310;2023-06-22T01:16:37;14.65;;;10.98;;
17818;SDS011;9034;50.284;19.310;2023-06-22T01:17:43;13.30;;;10.50;;
17818;SDS011;9034;50.284;19.310;2023-06-22T01:18:46;14.73;;;10.07;;
17818;SDS011;9034;50.284;19.310;2023-06-22T01:19:50;15.93;;;10.95;;
17818;SDS011;9034;50.284;19.310;2023-06-22T01:20:57;16.33;;;10.45;;
17818;SDS011;9034;50.284;19.310;2023-06-22T01:22:00;13.32;;;10.43;;
17818;SDS011;9034;50.284;19.310;2023-06-22T01:23:07;17.42;;;10.93;;
17818;SDS011;9034;50.284;19.310;2023-06-22T01:24:15;17.25;;;10.60;;
17818;SDS011;9034;50.284;19.310;2023-06-22T01:25:24;17.05;;;11.73;;
17818;SDS011;9034;50.284;19.310;2023-06-22T01:26:34;16.17;;;11.10;;
17818;SDS011;9034;50.284;19.310;2023-06-22T01:27:40;15.43;;;10.20;;
17818;SDS011;9034;50.284;19.310;2023-06-22T01:28:52;12.00;;;9.55;;
17818;SDS011;9034;50.284;19.310;2023-06-22T01:29:56;13.10;;;9.53;;
17818;SDS011;9034;50.284;19.310;2023-06-22T01:31:01;17.25;;;10.55;;
17818;SDS011;9034;50.284;19.310;2023-06-22T01:32:06;11.45;;;9.45;;
17818;SDS011;9034;50.284;19.310;2023-06-22T01:33:10;15.65;;;8.98;;
17818;SDS011;9034;50.284;19.310;2023-06-22T01:34:13;14.15;;;8.68;;
17818;SDS011;9034;50.284;19.310;2023-06-22T01:35:16;13.98;;;8.35;;
17818;SDS011;9034;50.284;19.310;2023-06-22T01:36:21;10.60;;;7.68;;
17818;SDS011;9034;50.284;19.310;2023-06-22T01:37:25;12.07;;;6.63;;
17818;SDS011;9034;50.284;19.310;2023-06-22T01:38:27;9.75;;;6.82;;
17818;SDS011;9034;50.284;19.310;2023-06-22T01:39:31;11.10;;;6.75;;
17818;SDS011;9034;50.284;19.310;2023-06-22T01:40:33;11.02;;;6.90;;
17818;SDS011;9034;50.284;19.310;2023-06-22T01:41:37;11.07;;;7.45;;
17818;SDS011;9034;50.284;19.310;2023-06-22T01:42:39;12.90;;;8.80;;
17818;SDS011;9034;50.284;19.310;2023-06-22T01:43:42;11.35;;;7.32;;
17818;SDS011;9034;50.284;19.310;2023-06-22T01:44:46;16.30;;;8.45;;
17818;SDS011;9034;50.284;19.310;2023-06-22T01:45:50;12.07;;;8.27;;
17818;SDS011;9034;50.284;19.310;2023-06-22T01:46:53;9.70;;;7.32;;
17818;SDS011;9034;50.284;19.310;2023-06-22T01:47:56;10.27;;;7.60;;
17818;SDS011;9034;50.284;19.310;2023-06-22T01:48:58;14.00;;;8.20;;
17818;SDS011;9034;50.284;19.310;2023-06-22T01:50:01;11.05;;;7.55;;
17818;SDS011;9034;50.284;19.310;2023-06-22T01:51:03;11.43;;;6.82;;
17818;SDS011;9034;50.284;19.310;2023-06-22T01:52:07;11.32;;;6.93;;
17818;SDS011;9034;50.284;19.310;2023-06-22T01:53:09;13.02;;;7.25;;
17818;SDS011;9034;50.284;19.310;2023-06-22T01:54:12;9.95;;;6.18;;
17818;SDS011;9034;50.284;19.310;2023-06-22T01:55:14;10.55;;;6.55;;
17818;SDS011;9034;50.284;19.310;2023-06-22T01:56:17;10.68;;;6.45;;
17818;SDS011;9034;50.284;19.310;2023-06-22T01:57:19;11.15;;;6.28;;
17818;SDS011;9034;50.284;19.310;2023-06-22T01:58:23;9.93;;;6.65;;
17818;SDS011;9034;50.284;19.310;2023-06-22T01:59:28;9.93;;;6.57;;
17818;SDS011;9034;50.284;19.310;2023-06-22T02:00:37;9.55;;;6.55;;
17818;SDS011;9034;50.284;19.310;2023-06-22T02:01:42;9.93;;;6.13;;
17818;SDS011;9034;50.284;19.310;2023-06-22T02:02:48;8.70;;;5.88;;
17818;SDS011;9034;50.284;19.310;2023-06-22T02:03:57;10.23;;;6.45;;
17818;SDS011;9034;50.284;19.310;2023-06-22T02:05:05;15.68;;;6.75;;
17818;SDS011;9034;50.284;19.310;2023-06-22T02:06:10;11.30;;;5.97;;
17818;SDS011;9034;50.284;19.310;2023-06-22T02:07:20;11.55;;;6.80;;
17818;SDS011;9034;50.284;19.310;2023-06-22T02:10:19;6.65;;;5.68;;
17818;SDS011;9034;50.284;19.310;2023-06-22T02:11:23;9.93;;;6.65;;
17818;SDS011;9034;50.284;19.310;2023-06-22T02:12:25;10.38;;;6.43;;
17818;SDS011;9034;50.284;19.310;2023-06-22T02:13:29;11.82;;;7.00;;
17818;SDS011;9034;50.284;19.310;2023-06-22T02:14:33;11.25;;;6.70;;
17818;SDS011;9034;50.284;19.310;2023-06-22T02:15:37;11.82;;;6.53;;
17818;SDS011;9034;50.284;19.310;2023-06-22T02:16:40;9.65;;;6.50;;
17818;SDS011;9034;50.284;19.310;2023-06-22T02:17:43;10.20;;;6.75;;
17818;SDS011;9034;50.284;19.310;2023-06-22T02:18:47;11.07;;;6.47;;
17818;SDS011;9034;50.284;19.310;2023-06-22T02:19:49;9.48;;;6.47;;
17818;SDS011;9034;50.284;19.310;2023-06-22T02:20:52;11.90;;;6.97;;
17818;SDS011;9034;50.284;19.310;2023-06-22T02:21:54;9.50;;;6.53;;
17818;SDS011;9034;50.284;19.310;2023-06-22T02:22:56;8.82;;;6.30;;
17818;SDS011;9034;50.284;19.310;2023-06-22T02:23:58;8.80;;;6.65;;
17818;SDS011;9034;50.284;19.310;2023-06-22T02:25:04;9.15;;;6.85;;
17818;SDS011;9034;50.284;19.310;2023-06-22T02:26:06;9.63;;;6.38;;
17818;SDS011;9034;50.284;19.310;2023-06-22T02:27:09;12.60;;;6.88;;
17818;SDS011;9034;50.284;19.310;2023-06-22T02:28:11;15.57;;;6.72;;
17818;SDS011;9034;50.284;19.310;2023-06-22T02:29:14;9.73;;;6.38;;
17818;SDS011;9034;50.284;19.310;2023-06-22T02:30:17;8.88;;;7.05;;
17818;SDS011;9034;50.284;19.310;2023-06-22T02:31:21;9.32;;;7.40;;
17818;SDS011;9034;50.284;19.310;2023-06-22T02:32:23;10.77;;;6.93;;
17818;SDS011;9034;50.284;19.310;2023-06-22T02:33:26;9.75;;;7.50;;
17818;SDS011;9034;50.284;19.310;2023-06-22T02:34:28;9.00;;;7.00;;
17818;SDS011;9034;50.284;19.310;2023-06-22T02:35:31;11.25;;;6.53;;
17818;SDS011;9034;50.284;19.310;2023-06-22T02:36:33;9.50;;;6.95;;
17818;SDS011;9034;50.284;19.310;2023-06-22T02:37:37;10.82;;;7.00;;
17818;SDS011;9034;50.284;19.310;2023-06-22T02:38:40;12.88;;;6.97;;
17818;SDS011;9034;50.284;19.310;2023-06-22T02:39:49;15.50;;;7.80;;
17818;SDS011;9034;50.284;19.310;2023-06-22T02:40:51;11.02;;;6.82;;
17818;SDS011;9034;50.284;19.310;2023-06-22T02:41:54;11.00;;;6.70;;
17818;SDS011;9034;50.284;19.310;2023-06-22T02:42:57;9.43;;;6.80;;
17818;SDS011;9034;50.284;19.310;2023-06-22T02:44:03;11.75;;;7.55;;
17818;SDS011;9034;50.284;19.310;2023-06-22T02:45:05;10.27;;;7.13;;
17818;SDS011;9034;50.284;19.310;2023-06-22T02:46:09;10.13;;;6.57;;
17818;SDS011;9034;50.284;19.310;2023-06-22T02:47:12;16.02;;;7.85;;
17818;SDS011;9034;50.284;19.310;2023-06-22T02:48:15;10.95;;;7.38;;
17818;SDS011;9034;50.284;19.310;2023-06-22T02:49:17;15.90;;;7.72;;
17818;SDS011;9034;50.284;19.310;2023-06-22T02:50:20;10.95;;;7.22;;
17818;SDS011;9034;50.284;19.310;2023-06-22T02:51:22;13.00;;;7.22;;
17818;SDS011;9034;50.284;19.310;2023-06-22T02:52:25;12.20;;;7.20;;
17818;SDS011;9034;50.284;19.310;2023-06-22T02:53:27;9.93;;;7.53;;
17818;SDS011;9034;50.284;19.310;2023-06-22T02:54:30;9.68;;;6.82;;
17818;SDS011;9034;50.284;19.310;2023-06-22T02:55:32;14.77;;;8.60;;
17818;SDS011;9034;50.284;19.310;2023-06-22T02:56:35;10.63;;;7.57;;
17818;SDS011;9034;50.284;19.310;2023-06-22T02:57:38;15.35;;;7.00;;
17818;SDS011;9034;50.284;19.310;2023-06-22T02:58:45;7.40;;;6.60;;
17818;SDS011;9034;50.284;19.310;2023-06-22T02:59:47;10.25;;;6.95;;
17818;SDS011;9034;50.284;19.310;2023-06-22T03:00:49;11.35;;;7.43;;
17818;SDS011;9034;50.284;19.310;2023-06-22T03:01:54;10.00;;;6.80;;
17818;SDS011;9034;50.284;19.310;2023-06-22T03:03:03;13.75;;;7.40;;
17818;SDS011;9034;50.284;19.310;2023-06-22T03:04:05;12.60;;;7.72;;
17818;SDS011;9034;50.284;19.310;2023-06-22T03:05:09;13.18;;;7.65;;
17818;SDS011;9034;50.284;19.310;2023-06-22T03:06:14;13.73;;;8.20;;
17818;SDS011;9034;50.284;19.310;2023-06-22T03:07:17;14.32;;;7.68;;
17818;SDS011;9034;50.284;19.310;2023-06-22T03:08:20;10.82;;;8.05;;
17818;SDS011;9034;50.284;19.310;2023-06-22T03:09:22;12.55;;;7.70;;
17818;SDS011;9034;50.284;19.310;2023-06-22T03:10:24;17.30;;;8.70;;
17818;SDS011;9034;50.284;19.310;2023-06-22T03:11:28;13.30;;;8.18;;
17818;SDS011;9034;50.284;19.310;2023-06-22T03:12:32;20.17;;;8.93;;
17818;SDS011;9034;50.284;19.310;2023-06-22T03:13:35;15.25;;;8.20;;
17818;SDS011;9034;50.284;19.310;2023-06-22T03:14:37;14.77;;;8.82;;
17818;SDS011;9034;50.284;19.310;2023-06-22T03:15:40;13.27;;;8.13;;
17818;SDS011;9034;50.284;19.310;2023-06-22T03:16:42;14.57;;;8.68;;
17818;SDS011;9034;50.284;19.310;2023-06-22T03:17:45;13.77;;;8.85;;
17818;SDS011;9034;50.284;19.310;2023-06-22T03:18:49;16.50;;;9.52;;
17818;SDS011;9034;50.284;19.310;2023-06-22T03:19:52;14.15;;;8.65;;
17818;SDS011;9034;50.284;19.310;2023-06-22T03:20:54;10.70;;;8.00;;
17818;SDS011;9034;50.284;19.310;2023-06-22T03:21:59;17.40;;;8.35;;
17818;SDS011;9034;50.284;19.310;2023-06-22T03:23:01;9.88;;;7.72;;
17818;SDS011;9034;50.284;19.310;2023-06-22T03:24:04;10.68;;;7.63;;
17818;SDS011;9034;50.284;19.310;2023-06-22T03:25:06;14.77;;;8.20;;
17818;SDS011;9034;50.284;19.310;2023-06-22T03:26:17;13.55;;;7.68;;
17818;SDS011;9034;50.284;19.310;2023-06-22T03:27:20;11.60;;;7.53;;
17818;SDS011;9034;50.284;19.310;2023-06-22T03:28:22;9.98;;;7.40;;
17818;SDS011;9034;50.284;19.310;2023-06-22T03:29:24;11.95;;;7.38;;
17818;SDS011;9034;50.284;19.310;2023-06-22T03:30:31;11.85;;;7.68;;
17818;SDS011;9034;50.284;19.310;2023-06-22T03:31:34;13.32;;;7.50;;
17818;SDS011;9034;50.284;19.310;2023-06-22T03:32:39;12.13;;;7.50;;
17818;SDS011;9034;50.284;19.310;2023-06-22T03:33:41;9.40;;;7.43;;
17818;SDS011;9034;50.284;19.310;2023-06-22T03:34:45;11.15;;;6.85;;
17818;SDS011;9034;50.284;19.310;2023-06-22T03:35:48;18.58;;;8.25;;
17818;SDS011;9034;50.284;19.310;2023-06-22T03:36:51;16.23;;;7.95;;
17818;SDS011;9034;50.284;19.310;2023-06-22T03:37:54;14.23;;;8.32;;
17818;SDS011;9034;50.284;19.310;2023-06-22T03:38:57;12.57;;;7.53;;
17818;SDS011;9034;50.284;19.310;2023-06-22T03:39:59;13.43;;;8.00;;
17818;SDS011;9034;50.284;19.310;2023-06-22T03:41:03;23.58;;;8.63;;
17818;SDS011;9034;50.284;19.310;2023-06-22T03:42:05;15.55;;;8.27;;
17818;SDS011;9034;50.284;19.310;2023-06-22T03:43:14;13.38;;;7.30;;
17818;SDS011;9034;50.284;19.310;2023-06-22T03:44:15;12.82;;;7.40;;
17818;SDS011;9034;50.284;19.310;2023-06-22T03:45:18;14.27;;;7.95;;
17818;SDS011;9034;50.284;19.310;2023-06-22T03:46:21;12.02;;;6.95;;
17818;SDS011;9034;50.284;19.310;2023-06-22T03:47:24;11.73;;;7.68;;
17818;SDS011;9034;50.284;19.310;2023-06-22T03:48:26;12.52;;;7.78;;
17818;SDS011;9034;50.284;19.310;2023-06-22T03:49:29;15.75;;;7.85;;
17818;SDS011;9034;50.284;19.310;2023-06-22T03:50:32;13.27;;;7.28;;
17818;SDS011;9034;50.284;19.310;2023-06-22T03:51:35;10.48;;;7.80;;
17818;SDS011;9034;50.284;19.310;2023-06-22T03:52:37;14.25;;;7.93;;
17818;SDS011;9034;50.284;19.310;2023-06-22T03:53:40;13.00;;;7.47;;
17818;SDS011;9034;50.284;19.310;2023-06-22T03:54:42;11.50;;;7.32;;
17818;SDS011;9034;50.284;19.310;2023-06-22T03:55:47;13.45;;;8.18;;
17818;SDS011;9034;50.284;19.310;2023-06-22T03:56:50;13.55;;;7.53;;
17818;SDS011;9034;50.284;19.310;2023-06-22T03:57:53;13.63;;;8.27;;
17818;SDS011;9034;50.284;19.310;2023-06-22T03:58:58;12.95;;;7.25;;
17818;SDS011;9034;50.284;19.310;2023-06-22T04:00:01;10.68;;;7.15;;
17818;SDS011;9034;50.284;19.310;2023-06-22T04:01:12;11.30;;;7.27;;
17818;SDS011;9034;50.284;19.310;2023-06-22T04:02:17;13.82;;;7.18;;
17818;SDS011;9034;50.284;19.310;2023-06-22T04:03:19;12.35;;;6.50;;
17818;SDS011;9034;50.284;19.310;2023-06-22T04:04:22;14.73;;;7.53;;
17818;SDS011;9034;50.284;19.310;2023-06-22T04:05:24;13.77;;;7.40;;
17818;SDS011;9034;50.284;19.310;2023-06-22T04:06:29;8.30;;;7.10;;
17818;SDS011;9034;50.284;19.310;2023-06-22T04:07:31;13.88;;;6.72;;
17818;SDS011;9034;50.284;19.310;2023-06-22T04:08:34;11.67;;;7.83;;
17818;SDS011;9034;50.284;19.310;2023-06-22T04:09:35;12.67;;;6.67;;
17818;SDS011;9034;50.284;19.310;2023-06-22T04:10:38;11.63;;;7.07;;
17818;SDS011;9034;50.284;19.310;2023-06-22T04:11:40;11.57;;;7.20;;
17818;SDS011;9034;50.284;19.310;2023-06-22T04:12:43;11.05;;;6.78;;
17818;SDS011;9034;50.284;19.310;2023-06-22T04:13:45;14.03;;;7.23;;
17818;SDS011;9034;50.284;19.310;2023-06-22T04:14:48;10.30;;;7.37;;
17818;SDS011;9034;50.284;19.310;2023-06-22T04:15:50;11.30;;;6.82;;
17818;SDS011;9034;50.284;19.310;2023-06-22T04:16:52;10.97;;;7.23;;
17818;SDS011;9034;50.284;19.310;2023-06-22T04:17:54;11.05;;;7.18;;
17818;SDS011;9034;50.284;19.310;2023-06-22T04:18:58;11.43;;;7.20;;
17818;SDS011;9034;50.284;19.310;2023-06-22T04:20:00;12.33;;;7.30;;
17818;SDS011;9034;50.284;19.310;2023-06-22T04:21:07;12.60;;;6.93;;
17818;SDS011;9034;50.284;19.310;2023-06-22T04:22:10;11.17;;;7.47;;
17818;SDS011;9034;50.284;19.310;2023-06-22T04:23:13;11.30;;;6.93;;
17818;SDS011;9034;50.284;19.310;2023-06-22T04:24:15;12.73;;;7.33;;
17818;SDS011;9034;50.284;19.310;2023-06-22T04:25:18;9.70;;;6.73;;
17818;SDS011;9034;50.284;19.310;2023-06-22T04:26:20;10.80;;;6.70;;
17818;SDS011;9034;50.284;19.310;2023-06-22T04:27:23;14.47;;;7.73;;
17818;SDS011;9034;50.284;19.310;2023-06-22T04:28:25;11.97;;;6.63;;
17818;SDS011;9034;50.284;19.310;2023-06-22T04:29:28;9.93;;;6.60;;
17818;SDS011;9034;50.284;19.310;2023-06-22T04:30:32;10.37;;;7.20;;
17818;SDS011;9034;50.284;19.310;2023-06-22T04:31:35;14.40;;;7.43;;
17818;SDS011;9034;50.284;19.310;2023-06-22T04:32:38;12.47;;;7.40;;
17818;SDS011;9034;50.284;19.310;2023-06-22T04:33:42;12.00;;;6.60;;
17818;SDS011;9034;50.284;19.310;2023-06-22T04:34:44;14.97;;;7.57;;
17818;SDS011;9034;50.284;19.310;2023-06-22T04:35:47;11.80;;;7.43;;
17818;SDS011;9034;50.284;19.310;2023-06-22T04:36:49;13.47;;;6.43;;
17818;SDS011;9034;50.284;19.310;2023-06-22T04:37:53;7.77;;;7.03;;
17818;SDS011;9034;50.284;19.310;2023-06-22T04:38:56;12.27;;;7.57;;
17818;SDS011;9034;50.284;19.310;2023-06-22T04:39:59;15.17;;;7.70;;
17818;SDS011;9034;50.284;19.310;2023-06-22T04:41:01;11.17;;;6.90;;
17818;SDS011;9034;50.284;19.310;2023-06-22T04:42:04;11.70;;;7.67;;
17818;SDS011;9034;50.284;19.310;2023-06-22T04:43:07;13.17;;;7.33;;
17818;SDS011;9034;50.284;19.310;2023-06-22T04:44:11;12.30;;;7.43;;
17818;SDS011;9034;50.284;19.310;2023-06-22T04:45:14;11.50;;;6.80;;
17818;SDS011;9034;50.284;19.310;2023-06-22T04:46:16;13.43;;;7.63;;
17818;SDS011;9034;50.284;19.310;2023-06-22T04:47:19;13.80;;;7.50;;
17818;SDS011;9034;50.284;19.310;2023-06-22T04:48:21;12.00;;;7.50;;
17818;SDS011;9034;50.284;19.310;2023-06-22T04:49:24;12.27;;;8.47;;
17818;SDS011;9034;50.284;19.310;2023-06-22T04:50:34;14.27;;;7.50;;
17818;SDS011;9034;50.284;19.310;2023-06-22T04:51:39;11.70;;;8.20;;
17818;SDS011;9034;50.284;19.310;2023-06-22T04:52:42;12.20;;;7.60;;
17818;SDS011;9034;50.284;19.310;2023-06-22T04:53:46;9.20;;;7.33;;
17818;SDS011;9034;50.284;19.310;2023-06-22T04:54:48;12.57;;;7.87;;
17818;SDS011;9034;50.284;19.310;2023-06-22T04:55:56;14.10;;;7.87;;
17818;SDS011;9034;50.284;19.310;2023-06-22T04:56:58;11.87;;;7.40;;
17818;SDS011;9034;50.284;19.310;2023-06-22T04:58:01;10.20;;;8.13;;
17818;SDS011;9034;50.284;19.310;2023-06-22T04:59:06;10.83;;;7.87;;
17818;SDS011;9034;50.284;19.310;2023-06-22T05:00:10;17.23;;;8.40;;
17818;SDS011;9034;50.284;19.310;2023-06-22T05:01:13;11.07;;;7.70;;
17818;SDS011;9034;50.284;19.310;2023-06-22T05:02:16;13.30;;;8.20;;
17818;SDS011;9034;50.284;19.310;2023-06-22T05:03:18;14.00;;;8.10;;
17818;SDS011;9034;50.284;19.310;2023-06-22T05:04:21;14.20;;;8.23;;
17818;SDS011;9034;50.284;19.310;2023-06-22T05:05:25;10.53;;;8.60;;
17818;SDS011;9034;50.284;19.310;2023-06-22T05:06:28;13.67;;;7.83;;
17818;SDS011;9034;50.284;19.310;2023-06-22T05:07:30;10.43;;;7.90;;
17818;SDS011;9034;50.284;19.310;2023-06-22T05:08:33;19.43;;;9.17;;
17818;SDS011;9034;50.284;19.310;2023-06-22T05:09:36;14.80;;;9.43;;
17818;SDS011;9034;50.284;19.310;2023-06-22T05:10:39;12.63;;;8.73;;
17818;SDS011;9034;50.284;19.310;2023-06-22T05:12:00;10.27;;;8.70;;
17818;SDS011;9034;50.284;19.310;2023-06-22T05:13:03;15.43;;;8.63;;
17818;SDS011;9034;50.284;19.310;2023-06-22T05:14:05;16.23;;;9.00;;
17818;SDS011;9034;50.284;19.310;2023-06-22T05:15:09;13.90;;;8.97;;
17818;SDS011;9034;50.284;19.310;2023-06-22T05:16:12;12.93;;;9.17;;
17818;SDS011;9034;50.284;19.310;2023-06-22T05:17:14;15.93;;;8.57;;
17818;SDS011;9034;50.284;19.310;2023-06-22T05:18:20;16.00;;;9.40;;
17818;SDS011;9034;50.284;19.310;2023-06-22T05:19:25;10.70;;;9.27;;
17818;SDS011;9034;50.284;19.310;2023-06-22T05:20:35;17.97;;;10.20;;
17818;SDS011;9034;50.284;19.310;2023-06-22T05:21:37;13.83;;;10.03;;
17818;SDS011;9034;50.284;19.310;2023-06-22T05:22:40;14.47;;;11.20;;
17818;SDS011;9034;50.284;19.310;2023-06-22T05:23:44;18.67;;;10.60;;
17818;SDS011;9034;50.284;19.310;2023-06-22T05:24:48;12.67;;;9.80;;
17818;SDS011;9034;50.284;19.310;2023-06-22T05:25:51;16.30;;;9.30;;
17818;SDS011;9034;50.284;19.310;2023-06-22T05:26:53;15.83;;;11.67;;
17818;SDS011;9034;50.284;19.310;2023-06-22T05:27:56;20.30;;;15.00;;
17818;SDS011;9034;50.284;19.310;2023-06-22T05:28:59;15.93;;;13.23;;
17818;SDS011;9034;50.284;19.310;2023-06-22T05:30:02;26.33;;;15.03;;
17818;SDS011;9034;50.284;19.310;2023-06-22T05:31:04;29.47;;;15.27;;
17818;SDS011;9034;50.284;19.310;2023-06-22T05:32:07;23.20;;;16.53;;
17818;SDS011;9034;50.284;19.310;2023-06-22T05:33:09;20.23;;;15.73;;
17818;SDS011;9034;50.284;19.310;2023-06-22T05:34:12;21.17;;;16.43;;
17818;SDS011;9034;50.284;19.310;2023-06-22T05:35:15;22.07;;;15.83;;
17818;SDS011;9034;50.284;19.310;2023-06-22T05:36:17;19.90;;;15.63;;
17818;SDS011;9034;50.284;19.310;2023-06-22T05:37:21;20.40;;;16.37;;
17818;SDS011;9034;50.284;19.310;2023-06-22T05:38:23;23.90;;;15.70;;
17818;SDS011;9034;50.284;19.310;2023-06-22T05:39:25;22.40;;;16.27;;
17818;SDS011;9034;50.284;19.310;2023-06-22T05:40:29;19.77;;;15.57;;
17818;SDS011;9034;50.284;19.310;2023-06-22T05:41:32;20.90;;;16.10;;
17818;SDS011;9034;50.284;19.310;2023-06-22T05:42:34;18.03;;;15.90;;
17818;SDS011;9034;50.284;19.310;2023-06-22T05:43:36;21.93;;;13.97;;
17818;SDS011;9034;50.284;19.310;2023-06-22T05:44:39;21.27;;;14.67;;
17818;SDS011;9034;50.284;19.310;2023-06-22T05:45:42;18.77;;;13.23;;
17818;SDS011;9034;50.284;19.310;2023-06-22T05:46:44;18.10;;;13.60;;
17818;SDS011;9034;50.284;19.310;2023-06-22T05:47:48;22.37;;;14.43;;
17818;SDS011;9034;50.284;19.310;2023-06-22T05:48:50;22.83;;;15.33;;
17818;SDS011;9034;50.284;19.310;2023-06-22T05:49:52;16.57;;;14.53;;
17818;SDS011;9034;50.284;19.310;2023-06-22T05:50:54;18.73;;;16.03;;
17818;SDS011;9034;50.284;19.310;2023-06-22T05:51:57;23.77;;;19.77;;
17818;SDS011;9034;50.284;19.310;2023-06-22T05:52:59;24.47;;;19.60;;
17818;SDS011;9034;50.284;19.310;2023-06-22T05:54:02;29.60;;;21.47;;
17818;SDS011;9034;50.284;19.310;2023-06-22T05:55:04;25.10;;;19.80;;
17818;SDS011;9034;50.284;19.310;2023-06-22T05:56:09;24.63;;;19.60;;
17818;SDS011;9034;50.284;19.310;2023-06-22T05:57:11;24.67;;;21.17;;
17818;SDS011;9034;50.284;19.310;2023-06-22T05:58:14;26.53;;;22.10;;
17818;SDS011;9034;50.284;19.310;2023-06-22T05:59:16;27.60;;;21.07;;
17818;SDS011;9034;50.284;19.310;2023-06-22T06:00:19;28.07;;;22.93;;
17818;SDS011;9034;50.284;19.310;2023-06-22T06:01:23;24.77;;;20.10;;
17818;SDS011;9034;50.284;19.310;2023-06-22T06:02:27;25.17;;;20.90;;
17818;SDS011;9034;50.284;19.310;2023-06-22T06:03:29;25.77;;;21.80;;
17818;SDS011;9034;50.284;19.310;2023-06-22T06:04:32;25.60;;;20.80;;
17818;SDS011;9034;50.284;19.310;2023-06-22T06:05:34;24.47;;;20.93;;
17818;SDS011;9034;50.284;19.310;2023-06-22T06:06:37;22.43;;;19.47;;
17818;SDS011;9034;50.284;19.310;2023-06-22T06:07:39;23.00;;;20.00;;
17818;SDS011;9034;50.284;19.310;2023-06-22T06:08:42;22.60;;;17.70;;
17818;SDS011;9034;50.284;19.310;2023-06-22T06:09:44;19.63;;;17.60;;
17818;SDS011;9034;50.284;19.310;2023-06-22T06:10:46;18.90;;;16.90;;
17818;SDS011;9034;50.284;19.310;2023-06-22T06:11:51;21.47;;;17.13;;
17818;SDS011;9034;50.284;19.310;2023-06-22T06:12:53;19.10;;;16.63;;
17818;SDS011;9034;50.284;19.310;2023-06-22T06:13:55;18.03;;;16.13;;
17818;SDS011;9034;50.284;19.310;2023-06-22T06:14:58;20.00;;;16.53;;
17818;SDS011;9034;50.284;19.310;2023-06-22T06:16:01;18.53;;;16.47;;
17818;SDS011;9034;50.284;19.310;2023-06-22T06:17:04;21.00;;;17.80;;
17818;SDS011;9034;50.284;19.310;2023-06-22T06:18:06;17.73;;;15.87;;
17818;SDS011;9034;50.284;19.310;2023-06-22T06:19:08;19.40;;;17.30;;